View Sortable Currents For Network
ASOSCoCoRaHSCOOPCellular COOPDCPISU Soil Moisture
OtherSCANMy FavoritesBy StateRWISRWIS Surface
RWIS TrafficRWIS SoilBy NWS WFOUSCRN
ADD: Station: Ob Time Temps °F     Wind [knots] Precip
Air (Hi / Lo) DewP Feels RH% Vis Speed Direction Gust @Time Accum [1]
Mason City US1810:10 AM 54.7(54.7/44.8) 36 55 58 14G19140 20@ 08:20 AM 0
Plainfield10:10 AM 57.2(57.2/46.2) 37 57 47 10G13340 17@ 08:30 AM 0
Adair (I-80)10:10 AM 56.8(56.8/50.4) 46.4 57 68 15G24360 24@ 10:05 AM 0
Alton (IA10)10:10 AM 60.8(60.8/49.6) 40.1 61 46 17G24150 24@ 08:35 AM 0
Altoona (I-80/US 65)10:10 AM 54.7(54.7/46.9) 43.2 55 65 13G17220 21@ 10:05 AM 0
Avoca (I-80)10:10 AM 55.2(55.9/52.7) 45 55 68 16G21140 25@ 08:40 AM 0
Steamboat Rock (US20)10:10 AM 54.1(54.9/42.4) 41.9 54 62 0
Sibley10:10 AM 58.6(59/46.6) 39 59 48 23G30140 30@ 10:05 AM 0
Spencer (US 18)10:10 AM 59.5(59.5/45.7) 39.7 60 48 22G26150 29@ 09:55 AM 0
Williamsburg (I-80)10:10 AM 53.8(53.8/42.4) 36.7 54 51 12G17130 19@ 09:15 AM 0
Grinnell (I-80)10:10 AM 52.2(52.2/44.4) 41.2 52 66 14G1950 22@ 09:15 AM 0
Urbana (I-380)10:10 AM 52.9(52.9/38.3) 33.8 53 49 12G16150 16@ 08:40 AM 0
Fort Dodge (US 20)10:10 AM 60.6(60.6/47.3) 41.9 61 50 15G18170 22@ 10:05 AM 0
Iowa City (US 218)10:10 AM 52.5(52.5/43.7) 35.2 53 51 13G17120 17@ 10:05 AM 0
Storm Lake (US 71/IA 3)10:10 AM 60.3(60.3/46.9) 42.8 60 52 21G28100 28@ 10:05 AM 8.7
Quad Cities10:10 AM 51(51/38) 28 51 41 9G10130 15@ 12:55 AM 0
Algona (US 18)10:10 AM 58.1(58.1/48) 42.4 58 56 20G240 24@ 10:10 AM 0
Williams (I-35)10:10 AM 55.2(55.2/43.9) 38 55 61 12G1710 20@ 08:40 AM 0
Red Oak (US 34/US 71)10:10 AM 54.9(57.6/53.6) 46.8 55 74 5G10160 11@ 09:15 AM 0
Sidney (I-29/IA 2)10:10 AM 55.4(62.2/55) 53.2 55 92 10G14170 22@ 09:00 AM 1.4
Sigourney (IA 92)10:10 AM 52.3(52.3/45) 39 52 57 12G24340 24@ 10:05 AM
Des Moines (I-35)10:10 AM 54.7(54.7/49.8) 42.4 55 63 14G2280 22@ 10:10 AM 0
Sioux City Maintenance10:10 AM 55.2(59/53.4) 45.7 55 70 11G11310 16@ 05:00 AM
Ames (I-35)10:10 AM 55.8(55.8/44.6) 43.3 56 63 11G18310 22@ 09:00 AM 0
Iowa City (I-80)10:10 AM 51(51/40) 33 51 50 12140 12@ 09:55 AM 0
Jefferson (IA 4)10:10 AM 57.6(57.6/48) 45.5 58 64 10G17140 20@ 09:15 AM 0
Manchester (US 20)10:10 AM 53.8(53.8/39.7) 32 54 43 4G10120 13@ 08:15 AM 0
Maquoketa (US 61/IA 64)10:10 AM 52(52/39.6) 29.5 52 41 7G1090 11@ 01:30 AM 0
Mason City (I-35)10:10 AM 54.3(54.3/45.5) 39.6 54 58 21G24180 24@ 10:05 AM 0
Missouri Valley (I-29)10:10 AM 52.5(58.6/52.5) 44 53 73 7140 19@ 06:35 AM
Mount Pleasant (US 218)10:10 AM 53.8(53.8/44.1) 29.5 54 38 4G15160 15@ 10:10 AM 0
Osceola (I-35)10:10 AM 56.1(56.1/51.4) 48.4 56 75 10G20130 20@ 09:15 AM 0
De Witt (US 30/US 61)10:10 AM 52(52.2/38.8) 32.2 52 45 8G11100 12@ 05:30 AM 0
Leon (I-35)/IA 2)10:10 AM 56.5(56.5/51.1) 47.7 57 72 10G17130 17@ 09:55 AM 0
Ottumwa (US 63)10:10 AM 52.3(52.9/48.4) 39.4 52 61 14G17120 17@ 10:05 AM 0
Eddyville10:10 AM 54.3(54.5/46.4) 40.6 54 59 9G1610 16@ 08:00 AM 0
Denison10:10 AM 54.3(54.3/50) 41.2 54 61 19G21150 21@ 10:05 AM 0
Cantril10:10 AM (/) 15G18150 18@ 10:10 AM 0
Marshalltown (US 30)10:10 AM 54.1(54.3/43.2) 42.6 54 64 15G2290 22@ 10:05 AM 0
Moville10:10 AM 57.7(57.7/52.3) 49.5 58 73 10G15170 15@ 09:55 AM 0
Ida Grove (US 59)10:10 AM 55.8(56.3/49.3) 43.7 56 64 9G14160 18@ 07:55 AM 0
Des Moines (I-235)10:10 AM 55.6(55.6/49.5) 43.3 56 63 13140 13@ 09:55 AM 0
New Hampton (US 18)10:10 AM 54.1(54.1/41.4) 40.3 54 59 10G19160 19@ 10:05 AM 0
Bedford10:10 AM 55(56.7/53.2) 55 55 68 11G13110 19@ 08:55 AM 0
Tipton (I-80)10:10 AM 54.3(54.7/41.4) 31.5 54 40 4G11110 11@ 01:00 AM 0
Waterloo (US 20)10:10 AM 54.3(54.3/43) 37 54 52 9G14180 16@ 09:55 AM 0
Hanlontown (I-35)10:10 AM 57.4(57.4/45) 35 57 43 13190 15@ 08:40 AM
Ankeny (I-35)10:10 AM 53.8(53.8/47.1) 42.3 54 64 19G25160 25@ 10:10 AM 0
Burlington (US 34)10:10 AM 52.7(52.7/43) 34.5 53 49 5G10100 11@ 09:15 AM 0
Carroll (US 30)10:10 AM 56.3(56.3/49.8) 50 56 79 14G21110 21@ 09:55 AM 0
Cedar Rapids (I-380)10:10 AM 51.8(51.8/43.3) 30 52 43 10G11170 17@ 08:50 AM 0
Cedar Rapids (US 30)10:10 AM 52.7(52.7/43.2) 34 53 46 7G1110 82@ 03:05 AM 0
Colfax - I-8010:10 AM 57.4(57.4/47.1) 43.7 57 60 7G9180 15@ 08:15 AM 0
Centerville (IA 2)10:10 AM 53.2(53.2/48.7) 44.4 53 71 4G11180 16@ 09:55 AM 0
Creston (US 34)10:10 AM 55.2(55.2/50.9) 46.8 55 73 13G19140 21@ 09:55 AM 0
Davenport (I-80/I-280)10:10 AM 50(50/40.1) 28.9 50 44 12G14110 14@ 10:05 AM 0
Decorah (IA 9)10:10 AM 50.2(50.2/34.3) 34.2 50 52 12G17120 17@ 10:05 AM 0
Rockwell City10:10 AM 57.4(57.4/47.3) 42.8 57 58 22G29140 29@ 10:05 AM 0
Estherville - Hwy 910:10 AM 59(59.4/49.1) 40.8 59 51 10G17170 17@ 10:05 AM 0
Council Bluffs No210:10 AM 56.7(61.3/54) 45.7 57 66 2G4200 12@ 07:10 AM 0
Sloan I-2910:10 AM 54.9(59/52.9) 48.2 55 78 10G17180 17@ 09:15 AM 0.1
Saratoga10:10 AM 52.7(52.7/36.7) 39 53 59 15G19160 20@ 10:05 AM
Hawkeye10:10 AM 52.5(52.5/34) 33.6 53 48 14G19130 20@ 10:05 AM
Victor10:10 AM 50.5(50.5/43.2) 36 51 58 14G19360 19@ 08:35 AM
Granger10:10 AM 54.1(54.5/48.4) 41 54 61 16G20120 21@ 10:05 AM 0
Anamosa (US 151)10:10 AM 53.4(53.4/40) 32.5 53 44 13G20160 20@ 09:15 AM 0
Council Bluffs (I-80)10:10 AM 57.2(62.8/54.9) 44 57 67 0G380 12@ 04:05 AM 0
Mount Vernon - US30/IA110:10 AM 51.1(51.1/41.4) 28.2 51 41 13G1510 17@ 09:55 AM 0
Tiffin - I80/I380 Flyover10:10 AM 52.5(52.5/43.2) 29.5 53 41 6G15190 17@ 08:50 AM 0
Van Horne - US30/IA21810:10 AM 50.9(50.9/41.5) 32 51 48 17G2140 24@ 09:00 AM 0
Little Sioux - I2910:10 AM 55.4(59/54.3) 45.9 55 70 11G1440 20@ 08:35 AM 0
Pella (IA 163)09:50 AM (/)
Early - US20/US7109:50 AM (/) 22@ 08:35 AM
Dubuque (US 20)Apr-23-2024Site Offline


Notes:
1 Not all sites have the ability to measure precip nor visibility.
2 The Iowa City (I-80) RWIS site does not have atmospheric sensors on it , so it is not included on this page.